Pinckney, MI (48169)

4:28 PM EDT on September 04, 2015 (GMT -0400)
Hell, MI | | Change Station
CLOSE
Current Station
Personal Weather Station
Location: Hell, MI
Elevation: 920 ft
Nearby Weather Stations

Elev 920 ft 42.44 °N, 83.95 °W | Updated 3 seconds ago

Overcast
Overcast
82.5 °F
Feels Like 86 °F
N
3.3
Wind Variable Wind from ENE
Gusts 4.0 mph

Today
High -- | Low -- °F
--% Chance of Precip.
Yesterday
High -- | Low -- °F
Precip. -- in
7:03 AM 8:05 PM
Waning Gibbous, 56% visible
Pressure 30.02 in
Visibility 10.0 miles
Clouds Scattered Clouds 3200 ft
Mostly Cloudy 3700 ft
Heat Index 86 °F
Dew Point 69 °F
Humidity 65%
Rainfall 0.00 in
Snow Depth Not available.
UV 3 out of 12
Pollen 8.60 out of 12
Air Quality Not available.
Flu Activity Not available.
METAR KOZW 042015Z AUTO 00000KT 10SM SCT032 BKN037 26/18 A3002 RMK AO2 T02620178
Pressure 30.02 in
Visibility 10.0 miles
Clouds Scattered Clouds 3200 ft
Mostly Cloudy 3700 ft
Heat Index 86 °F
Dew Point 69 °F
Humidity 65%
Rainfall 0.00 in
Snow Depth Not available.
UV 3 out of 12
Pollen 8.60 out of 12
Air Quality Not available.
Flu Activity Not available.
METAR KOZW 042015Z AUTO 00000KT 10SM SCT032 BKN037 26/18 A3002 RMK AO2 T02620178

10-Day Weather Forecast

×

Almanac

Astronomy

Sep. 04, 2015 Rise Set
Actual Time
Civil Twilight
Nautical Twilight
Astronomical Twilight
Moon
Length of Visible Light
Length of Day
Tomorrow will be .
, % of the Moon is Illuminated

Today's Extremes

State Highs State Lows

Community

WunderPhotos

Upload Photos

1,852,272 photos uploaded!

WunderBlogs® & News

Nearby

Air Quality

  Air Quality AQ Index Pollutant
Not available.

Snow Depth

Station Depth Elevation

Earthquake Activity

City Distance Mag. Time & Date
Minimum magnitude displayed is 2.5.

Coastal Water Temperatures

Place Temperature

Stations

Nearby Weather Stations

Station Location Temp. Windchill Dew Point Humidity Wind Precip. Elev Updated Type